createdAt,value
2024-04-09T00:02:00.641Z,8.80
2024-04-09T00:04:28.657Z,8.80
2024-04-09T00:06:56.447Z,8.90
2024-04-09T00:09:24.108Z,8.80
2024-04-09T00:11:54.953Z,8.90
2024-04-09T00:14:23.180Z,8.90
2024-04-09T00:16:50.798Z,8.90
2024-04-09T00:19:18.989Z,8.80
2024-04-09T00:21:46.918Z,8.80
2024-04-09T00:24:19.045Z,8.80
2024-04-09T00:26:46.708Z,8.90
2024-04-09T00:29:15.247Z,8.90
2024-04-09T00:31:42.871Z,8.90
2024-04-09T00:34:14.459Z,8.90
2024-04-09T00:36:42.620Z,8.90
2024-04-09T00:39:23.661Z,8.90
2024-04-09T00:41:51.418Z,8.90
2024-04-09T00:44:19.729Z,8.90
2024-04-09T00:46:50.392Z,8.90
2024-04-09T00:49:20.565Z,8.90
2024-04-09T00:51:51.381Z,9.00
2024-04-09T00:54:19.708Z,8.90
2024-04-09T00:56:49.323Z,8.90
2024-04-09T00:59:23.307Z,8.90
2024-04-09T01:01:51.300Z,8.90
2024-04-09T01:04:19.134Z,8.90
2024-04-09T01:06:46.927Z,8.80
2024-04-09T01:09:14.939Z,8.80
2024-04-09T01:11:42.626Z,8.80
2024-04-09T01:14:10.950Z,8.80
2024-04-09T01:16:38.878Z,8.80
2024-04-09T01:19:06.695Z,8.80
2024-04-09T01:21:34.666Z,8.80
2024-04-09T01:24:02.617Z,8.80
2024-04-09T01:26:31.243Z,8.90
2024-04-09T01:28:58.903Z,8.90
2024-04-09T01:31:26.562Z,8.80
2024-04-09T01:33:54.418Z,8.80
2024-04-09T01:36:22.347Z,8.90
2024-04-09T01:38:50.862Z,8.80
2024-04-09T01:41:19.477Z,8.80
2024-04-09T01:43:47.238Z,8.80
2024-04-09T01:46:15.855Z,8.80
2024-04-09T01:48:44.289Z,8.70
2024-04-09T01:51:13.207Z,8.80
2024-04-09T01:53:45.014Z,8.80
2024-04-09T01:56:12.671Z,8.90
2024-04-09T01:58:40.651Z,8.90
2024-04-09T02:01:11.301Z,8.90
2024-04-09T02:03:40.248Z,8.90
2024-04-09T02:06:17.963Z,8.90
2024-04-09T02:08:46.261Z,8.90
2024-04-09T02:11:14.373Z,8.90
2024-04-09T02:13:43.146Z,8.90
2024-04-09T02:16:10.877Z,8.90
2024-04-09T02:18:39.174Z,8.90
2024-04-09T02:21:11.311Z,8.90
2024-04-09T02:23:42.963Z,9.00
2024-04-09T02:26:10.636Z,9.00
2024-04-09T02:28:38.335Z,9.00
2024-04-09T02:31:06.072Z,9.00
2024-04-09T02:33:35.121Z,9.00
2024-04-09T02:36:05.430Z,9.00
2024-04-09T02:38:38.197Z,9.10
2024-04-09T02:41:07.298Z,9.00
2024-04-09T02:43:36.431Z,9.10
2024-04-09T02:46:04.480Z,9.00
2024-04-09T02:48:32.314Z,9.10
2024-04-09T02:51:02.413Z,9.10
2024-04-09T02:53:30.418Z,9.10
2024-04-09T02:56:01.569Z,9.10
2024-04-09T02:58:29.869Z,9.10
2024-04-09T03:00:59.482Z,9.10
2024-04-09T03:03:27.167Z,9.10
2024-04-09T03:05:54.805Z,9.10
2024-04-09T03:08:22.468Z,9.10
2024-04-09T03:10:50.172Z,9.10
2024-04-09T03:13:17.806Z,9.10
2024-04-09T03:15:45.591Z,9.20
2024-04-09T03:18:13.354Z,9.10
2024-04-09T03:20:41.897Z,9.10
2024-04-09T03:23:09.566Z,9.10
2024-04-09T03:25:37.215Z,9.10
2024-04-09T03:28:05.192Z,9.10
2024-04-09T03:30:33.438Z,9.00
2024-04-09T03:33:02.435Z,9.10
2024-04-09T03:35:30.564Z,9.10
2024-04-09T03:37:58.210Z,9.00
2024-04-09T03:40:25.827Z,9.10
2024-04-09T03:42:53.755Z,9.00
2024-04-09T03:45:21.482Z,9.00
2024-04-09T03:47:49.425Z,9.00
2024-04-09T03:50:17.136Z,9.00
2024-04-09T03:52:44.781Z,9.00
2024-04-09T03:55:13.220Z,8.90
2024-04-09T03:57:41.934Z,8.90
2024-04-09T04:00:13.332Z,8.90
2024-04-09T04:02:41.197Z,8.90
2024-04-09T04:05:08.953Z,8.80
2024-04-09T04:07:36.686Z,8.80
2024-04-09T04:10:04.516Z,8.80
2024-04-09T04:12:32.269Z,8.80
2024-04-09T04:14:59.939Z,8.70
2024-04-09T04:17:27.645Z,8.70
2024-04-09T04:19:55.403Z,8.70
2024-04-09T04:22:23.051Z,8.70
2024-04-09T04:24:50.736Z,8.60
2024-04-09T04:27:18.522Z,8.60
2024-04-09T04:29:46.121Z,8.60
2024-04-09T04:32:15.696Z,8.60
2024-04-09T04:34:43.394Z,8.30
2024-04-09T04:37:11.113Z,8.20
2024-04-09T04:39:38.768Z,8.30
2024-04-09T04:42:06.974Z,8.20
2024-04-09T04:44:34.587Z,8.10
2024-04-09T04:47:02.581Z,8.10
2024-04-09T04:49:30.242Z,8.10
2024-04-09T04:51:59.330Z,8.20
2024-04-09T04:54:26.982Z,8.00
2024-04-09T04:56:54.913Z,8.00
2024-04-09T04:59:22.495Z,8.00
2024-04-09T05:01:50.150Z,7.90
2024-04-09T05:04:17.888Z,7.90
2024-04-09T05:06:45.645Z,7.90
2024-04-09T05:09:13.295Z,7.90
2024-04-09T05:11:40.991Z,7.90
2024-04-09T05:14:08.585Z,7.90
2024-04-09T05:16:36.201Z,7.80
2024-04-09T05:19:04.436Z,7.80
2024-04-09T05:21:32.330Z,7.70
2024-04-09T05:24:00.002Z,7.80
2024-04-09T05:26:28.497Z,7.80
2024-04-09T05:28:56.468Z,7.80
2024-04-09T05:31:24.108Z,7.80
2024-04-09T05:33:51.792Z,7.80
2024-04-09T05:36:19.611Z,7.70
2024-04-09T05:38:47.713Z,7.70
2024-04-09T05:41:15.409Z,7.80
2024-04-09T05:43:43.007Z,7.80
2024-04-09T05:46:10.656Z,7.70
2024-04-09T05:48:38.529Z,7.70
2024-04-09T05:51:06.371Z,7.70
2024-04-09T05:53:33.976Z,7.70
2024-04-09T05:56:01.608Z,7.70
2024-04-09T05:58:29.167Z,7.70
2024-04-09T06:00:57.675Z,7.70
2024-04-09T06:03:25.674Z,7.80
2024-04-09T06:05:53.492Z,7.80
2024-04-09T06:08:21.217Z,7.70
2024-04-09T06:10:49.049Z,7.70
2024-04-09T06:13:16.667Z,7.70
2024-04-09T06:15:44.473Z,7.70
2024-04-09T06:18:12.340Z,7.70
2024-04-09T06:20:40.544Z,7.70
2024-04-09T06:23:08.453Z,7.80
2024-04-09T06:25:36.888Z,7.80
2024-04-09T06:28:05.221Z,7.80
2024-04-09T06:30:33.072Z,7.80
2024-04-09T06:33:00.947Z,7.80
2024-04-09T06:35:29.575Z,7.80
2024-04-09T06:37:57.179Z,7.80
2024-04-09T06:40:25.241Z,7.80
2024-04-09T06:42:52.826Z,7.80
2024-04-09T06:45:20.605Z,7.80
2024-04-09T06:47:48.348Z,7.90
2024-04-09T06:50:16.984Z,7.90
2024-04-09T06:52:44.649Z,7.90
2024-04-09T06:55:12.334Z,7.80
2024-04-09T06:57:40.245Z,7.80
2024-04-09T07:00:09.003Z,7.90
2024-04-09T07:02:36.725Z,7.90
2024-04-09T07:05:04.823Z,7.90
2024-04-09T07:07:33.536Z,7.90
2024-04-09T07:10:02.325Z,7.90
2024-04-09T07:12:31.327Z,7.90
2024-04-09T07:14:59.098Z,8.00
2024-04-09T07:17:26.734Z,8.10
2024-04-09T07:19:56.929Z,8.10
2024-04-09T07:22:24.578Z,8.10
2024-04-09T07:24:52.188Z,8.10
2024-04-09T07:27:19.996Z,8.20
2024-04-09T07:29:47.617Z,8.10
2024-04-09T07:32:15.263Z,8.20
2024-04-09T07:34:44.770Z,8.20
2024-04-09T07:37:12.401Z,8.20
2024-04-09T07:39:40.107Z,8.10
2024-04-09T07:42:09.221Z,8.20
2024-04-09T07:44:36.864Z,8.10
2024-04-09T07:47:04.862Z,8.20
2024-04-09T07:49:32.645Z,8.30
2024-04-09T07:52:00.337Z,8.20
2024-04-09T07:54:28.096Z,8.30
2024-04-09T07:56:55.739Z,8.20
2024-04-09T07:59:23.704Z,8.30
2024-04-09T08:01:53.291Z,8.30
2024-04-09T08:04:21.241Z,8.30
2024-04-09T08:06:49.333Z,8.20
2024-04-09T08:09:18.271Z,8.30
2024-04-09T08:11:46.124Z,8.30
2024-04-09T08:14:13.953Z,8.30
2024-04-09T08:16:41.624Z,8.40
2024-04-09T08:19:09.405Z,8.50
2024-04-09T08:21:37.217Z,8.40
2024-04-09T08:24:05.209Z,8.40
2024-04-09T08:26:32.861Z,8.50
2024-04-09T08:29:05.342Z,8.60
2024-04-09T08:31:37.308Z,8.50
2024-04-09T08:34:05.500Z,8.50
2024-04-09T08:36:33.227Z,8.50
2024-04-09T08:39:01.604Z,8.50
2024-04-09T08:41:30.416Z,8.50
2024-04-09T08:44:01.368Z,8.50
2024-04-09T08:46:33.383Z,8.60
2024-04-09T08:49:03.016Z,8.50
2024-04-09T08:51:31.282Z,8.40
2024-04-09T08:53:59.846Z,8.40
2024-04-09T08:56:27.544Z,8.50
2024-04-09T08:58:55.447Z,8.40
2024-04-09T09:01:32.812Z,8.40
2024-04-09T09:04:00.831Z,8.30
2024-04-09T09:06:31.386Z,8.40
2024-04-09T09:09:00.004Z,8.30
2024-04-09T09:11:27.776Z,8.30
2024-04-09T09:14:05.791Z,8.30
2024-04-09T09:16:33.407Z,8.30
2024-04-09T09:19:07.978Z,8.30
2024-04-09T09:21:35.774Z,8.20
2024-04-09T09:24:03.567Z,8.30
2024-04-09T09:26:31.230Z,8.30
2024-04-09T09:29:05.465Z,8.20
2024-04-09T09:31:33.825Z,8.20
2024-04-09T09:34:08.612Z,8.20
2024-04-09T09:36:38.492Z,8.20
2024-04-09T09:39:07.864Z,8.20
2024-04-09T09:41:36.017Z,8.20
2024-04-09T09:44:04.428Z,8.20
2024-04-09T09:46:32.436Z,8.10
2024-04-09T09:49:03.410Z,8.10
2024-04-09T09:51:31.794Z,8.10
2024-04-09T09:53:59.627Z,8.10
2024-04-09T09:56:30.093Z,8.10
2024-04-09T09:58:58.998Z,8.20
2024-04-09T10:01:28.880Z,8.10
2024-04-09T10:03:56.939Z,8.20
2024-04-09T10:06:28.932Z,8.20
2024-04-09T10:08:56.682Z,8.20
2024-04-09T10:11:24.445Z,8.20
2024-04-09T10:13:53.144Z,8.20
2024-04-09T10:16:24.071Z,8.30
2024-04-09T10:18:52.862Z,8.20
2024-04-09T10:21:30.550Z,8.30
2024-04-09T10:24:01.244Z,8.20
2024-04-09T10:26:31.582Z,8.30
2024-04-09T10:29:07.062Z,8.10
2024-04-09T10:31:44.826Z,8.20
2024-04-09T10:34:22.927Z,8.10
2024-04-09T10:36:52.422Z,8.10
2024-04-09T10:39:22.074Z,8.00
2024-04-09T10:41:56.570Z,8.00
2024-04-09T10:44:25.139Z,8.00
2024-04-09T10:46:53.576Z,7.80
2024-04-09T10:49:21.463Z,7.80
2024-04-09T10:51:50.078Z,7.70
2024-04-09T10:54:17.784Z,7.50
2024-04-09T10:56:46.025Z,7.50
2024-04-09T10:59:17.027Z,7.50
2024-04-09T11:01:45.363Z,7.50
2024-04-09T11:04:14.862Z,7.40
2024-04-09T11:06:43.568Z,7.50
2024-04-09T11:09:12.519Z,7.60
2024-04-09T11:11:41.999Z,7.60
2024-04-09T11:14:12.690Z,7.50
2024-04-09T11:16:49.728Z,7.50
2024-04-09T11:19:27.282Z,7.40
2024-04-09T11:21:58.294Z,7.50
2024-04-09T11:24:26.149Z,7.50
2024-04-09T11:26:53.796Z,7.40
2024-04-09T11:29:25.090Z,7.50
2024-04-09T11:31:52.703Z,7.30
2024-04-09T11:34:32.672Z,7.30
2024-04-09T11:37:01.394Z,7.10
2024-04-09T11:39:29.481Z,7.10
2024-04-09T11:41:57.316Z,7.10
2024-04-09T11:44:25.622Z,7.10
2024-04-09T11:46:53.305Z,7.10
2024-04-09T11:49:21.155Z,7.00
2024-04-09T11:51:48.973Z,7.20
2024-04-09T11:54:19.181Z,7.10
2024-04-09T11:56:47.169Z,7.10
2024-04-09T11:59:14.783Z,7.00
2024-04-09T12:01:42.556Z,6.90
2024-04-09T12:04:10.407Z,6.90
2024-04-09T12:06:38.192Z,6.80
2024-04-09T12:09:08.772Z,7.00
2024-04-09T12:11:37.008Z,7.00
2024-04-09T12:14:04.717Z,6.90
2024-04-09T12:16:32.472Z,6.90
2024-04-09T12:19:00.262Z,6.80
2024-04-09T12:21:29.111Z,6.90
2024-04-09T12:23:56.871Z,6.90
2024-04-09T12:26:24.560Z,6.80
2024-04-09T12:28:58.831Z,6.80
2024-04-09T12:31:27.278Z,6.80
2024-04-09T12:33:55.443Z,6.80
2024-04-09T12:36:23.610Z,6.80
2024-04-09T12:38:51.342Z,6.90
2024-04-09T12:41:21.322Z,6.80
2024-04-09T12:43:50.482Z,6.80
2024-04-09T12:46:18.130Z,6.70
2024-04-09T12:49:00.486Z,6.80
2024-04-09T12:51:34.122Z,6.80
2024-04-09T12:54:01.763Z,6.80
2024-04-09T12:56:29.443Z,6.80
2024-04-09T12:58:57.055Z,6.80
2024-04-09T13:01:24.879Z,6.90
2024-04-09T13:03:52.998Z,6.90
2024-04-09T13:06:20.955Z,6.90
2024-04-09T13:08:48.736Z,6.90
2024-04-09T13:11:16.584Z,6.90
2024-04-09T13:13:44.310Z,7.00
2024-04-09T13:18:43.772Z,7.00
2024-04-09T13:21:11.508Z,7.00
2024-04-09T13:23:39.180Z,7.10
2024-04-09T13:26:06.844Z,7.00
2024-04-09T13:28:36.376Z,7.00
2024-04-09T13:31:05.931Z,7.10
2024-04-09T13:33:33.808Z,7.10
2024-04-09T13:36:01.596Z,7.10
2024-04-09T13:38:29.297Z,7.00
2024-04-09T13:40:57.143Z,6.90
2024-04-09T13:43:26.660Z,7.00
2024-04-09T13:45:54.370Z,7.00
2024-04-09T13:48:22.481Z,7.10
2024-04-09T13:50:52.432Z,7.10
2024-04-09T13:53:22.015Z,6.90
2024-04-09T13:55:49.751Z,7.10
2024-04-09T13:58:17.480Z,7.00
2024-04-09T14:00:46.882Z,7.00
2024-04-09T14:03:14.613Z,7.00
2024-04-09T14:05:42.450Z,7.10
2024-04-09T14:08:10.262Z,6.90
2024-04-09T14:10:41.635Z,7.00
2024-04-09T14:13:09.699Z,7.00
2024-04-09T14:15:40.017Z,6.90
2024-04-09T14:18:10.008Z,6.80
2024-04-09T14:20:37.852Z,6.80
2024-04-09T14:23:05.730Z,6.80
2024-04-09T14:25:33.434Z,6.80
2024-04-09T14:28:01.025Z,6.80
2024-04-09T14:30:28.706Z,6.90
2024-04-09T14:32:56.401Z,6.90
2024-04-09T14:35:24.196Z,6.90
2024-04-09T14:37:53.445Z,6.90
2024-04-09T14:40:21.565Z,7.00
2024-04-09T14:42:54.383Z,6.90
2024-04-09T14:45:23.749Z,7.00
2024-04-09T14:47:51.624Z,7.00
2024-04-09T14:50:19.444Z,7.00
2024-04-09T14:52:47.207Z,7.10
2024-04-09T14:55:15.057Z,7.00
2024-04-09T14:57:42.616Z,7.10
2024-04-09T15:00:12.381Z,7.10
2024-04-09T15:02:40.171Z,7.10
2024-04-09T15:05:08.034Z,7.10
2024-04-09T15:07:36.078Z,7.10
2024-04-09T15:10:07.793Z,7.10
2024-04-09T15:12:42.662Z,7.20
2024-04-09T15:15:12.101Z,7.10
2024-04-09T15:17:40.292Z,7.20
2024-04-09T15:20:11.277Z,7.20
2024-04-09T15:22:40.454Z,7.10
2024-04-09T15:25:15.101Z,7.10
2024-04-09T15:27:44.016Z,7.10
2024-04-09T15:30:11.868Z,7.10
2024-04-09T15:32:43.451Z,7.10
2024-04-09T15:35:12.442Z,7.20
2024-04-09T15:37:40.220Z,7.20
2024-04-09T15:40:08.719Z,7.10
2024-04-09T15:42:36.407Z,7.20
2024-04-09T15:45:05.111Z,7.10
2024-04-09T15:47:32.907Z,7.20
2024-04-09T15:50:00.742Z,7.20
2024-04-09T15:52:28.504Z,7.20
2024-04-09T15:54:56.132Z,7.20
2024-04-09T15:57:23.691Z,7.20
2024-04-09T15:59:51.669Z,7.30
2024-04-09T16:02:19.457Z,7.30
2024-04-09T16:04:47.272Z,7.20
2024-04-09T16:07:14.980Z,7.30
2024-04-09T16:09:42.642Z,7.30
2024-04-09T16:12:10.425Z,7.20
2024-04-09T16:14:38.908Z,7.20
2024-04-09T16:17:06.588Z,7.30
2024-04-09T16:19:34.277Z,7.20
2024-04-09T16:22:01.979Z,7.20
2024-04-09T16:24:29.644Z,7.30
2024-04-09T16:26:57.381Z,7.30
2024-04-09T16:29:25.196Z,7.30
2024-04-09T16:31:53.198Z,7.20
2024-04-09T16:34:20.984Z,7.30
2024-04-09T16:36:48.807Z,7.20
2024-04-09T16:39:16.513Z,7.20
2024-04-09T16:41:44.308Z,7.20
2024-04-09T16:44:12.007Z,7.20
2024-04-09T16:46:39.630Z,7.20
2024-04-09T16:49:08.399Z,7.20
2024-04-09T16:51:36.416Z,7.20
2024-04-09T16:54:04.809Z,7.30
2024-04-09T16:56:32.447Z,7.30
2024-04-09T16:59:01.467Z,7.30
2024-04-09T17:01:29.086Z,7.30
2024-04-09T17:03:57.107Z,7.30
2024-04-09T17:06:24.997Z,7.40
2024-04-09T17:08:54.235Z,7.40
2024-04-09T17:11:21.976Z,7.40
2024-04-09T17:13:49.874Z,7.40
2024-04-09T17:16:17.709Z,7.40
2024-04-09T17:18:45.558Z,7.40
2024-04-09T17:21:13.375Z,7.40
2024-04-09T17:23:41.008Z,7.50
2024-04-09T17:26:08.895Z,7.50
2024-04-09T17:28:36.578Z,7.60
2024-04-09T17:31:04.403Z,7.50
2024-04-09T17:33:32.116Z,7.60
2024-04-09T17:35:59.813Z,7.50
2024-04-09T17:38:27.432Z,7.60
2024-04-09T17:40:56.540Z,7.60
2024-04-09T17:43:24.352Z,7.70
2024-04-09T17:46:00.868Z,7.70
2024-04-09T17:48:28.697Z,7.70
2024-04-09T17:50:58.384Z,7.70
2024-04-09T17:53:26.744Z,7.70
2024-04-09T17:55:54.547Z,7.70
2024-04-09T17:58:23.875Z,7.80
2024-04-09T18:00:52.751Z,7.80
2024-04-09T18:03:23.277Z,7.80
2024-04-09T18:05:51.538Z,7.90
2024-04-09T18:08:19.743Z,7.90
2024-04-09T18:10:48.024Z,8.00
2024-04-09T18:13:15.782Z,8.00
2024-04-09T18:15:43.717Z,7.90
2024-04-09T18:18:11.556Z,8.00
2024-04-09T18:20:40.159Z,8.00
2024-04-09T18:23:07.815Z,8.00
2024-04-09T18:25:35.530Z,8.00
2024-04-09T18:28:03.258Z,7.90
2024-04-09T18:30:30.912Z,8.00
2024-04-09T18:33:00.502Z,8.00
2024-04-09T18:35:31.799Z,8.00
2024-04-09T18:37:59.680Z,8.00
2024-04-09T18:40:27.363Z,8.00
2024-04-09T18:42:55.009Z,8.00
2024-04-09T18:45:23.205Z,8.00
2024-04-09T18:47:51.488Z,7.90
2024-04-09T18:50:19.272Z,7.90
2024-04-09T18:52:47.135Z,7.90
2024-04-09T18:55:14.912Z,7.90
2024-04-09T18:57:42.511Z,7.80
2024-04-09T19:00:12.515Z,7.90
2024-04-09T19:02:41.735Z,7.80
2024-04-09T19:05:10.273Z,7.70
2024-04-09T19:07:38.126Z,7.70
2024-04-09T19:10:06.284Z,7.80
2024-04-09T19:12:33.985Z,7.70
2024-04-09T19:15:01.597Z,7.60
2024-04-09T19:17:29.383Z,7.50
2024-04-09T19:19:57.121Z,7.40
2024-04-09T19:22:24.894Z,7.40
2024-04-09T19:24:52.768Z,7.40
2024-04-09T19:27:20.430Z,7.40
2024-04-09T19:29:48.027Z,7.40
2024-04-09T19:32:15.819Z,7.40
2024-04-09T19:34:43.564Z,7.40
2024-04-09T19:37:11.178Z,7.30
2024-04-09T19:39:39.063Z,7.30
2024-04-09T19:42:06.795Z,7.30
2024-04-09T19:44:34.893Z,7.30
2024-04-09T19:47:02.750Z,7.30
2024-04-09T19:49:30.541Z,7.40
2024-04-09T19:51:58.204Z,7.30
2024-04-09T19:54:25.953Z,7.30
2024-04-09T19:56:53.705Z,7.40
2024-04-09T19:59:21.297Z,7.30
2024-04-09T20:01:48.980Z,7.20
2024-04-09T20:04:16.662Z,7.30
2024-04-09T20:06:47.438Z,7.30
2024-04-09T20:09:15.146Z,7.20
2024-04-09T20:11:44.290Z,7.20
2024-04-09T20:14:12.037Z,7.30
2024-04-09T20:16:39.687Z,7.20
2024-04-09T20:19:07.463Z,7.10
2024-04-09T20:21:35.087Z,7.20
2024-04-09T20:24:03.101Z,7.20
2024-04-09T20:26:30.865Z,7.20
2024-04-09T20:29:08.577Z,7.20
2024-04-09T20:31:42.041Z,7.10
2024-04-09T20:34:10.329Z,7.10
2024-04-09T20:36:38.309Z,7.10
2024-04-09T20:39:06.463Z,7.10
2024-04-09T20:41:34.727Z,7.10
2024-04-09T20:44:03.184Z,7.10
2024-04-09T20:46:30.998Z,7.10
2024-04-09T20:48:59.573Z,7.10
2024-04-09T20:51:28.207Z,7.10
2024-04-09T20:53:55.935Z,7.10
2024-04-09T20:56:23.930Z,7.10
2024-04-09T20:58:52.292Z,7.10
2024-04-09T21:01:19.991Z,7.00
2024-04-09T21:03:47.972Z,7.10
2024-04-09T21:06:15.597Z,7.00
2024-04-09T21:08:44.370Z,7.00
2024-04-09T21:11:12.878Z,7.00
2024-04-09T21:13:40.727Z,6.90
2024-04-09T21:16:10.059Z,6.90
2024-04-09T21:18:38.216Z,6.90
2024-04-09T21:21:06.336Z,6.90
2024-04-09T21:23:34.253Z,6.90
2024-04-09T21:26:02.062Z,6.90
2024-04-09T21:28:29.708Z,6.80
2024-04-09T21:30:57.832Z,6.90
2024-04-09T21:33:25.734Z,6.70
2024-04-09T21:35:57.413Z,6.70
2024-04-09T21:38:25.271Z,6.70
2024-04-09T21:41:07.107Z,6.70
2024-04-09T21:43:34.865Z,6.60
2024-04-09T21:46:02.591Z,6.50
2024-04-09T21:48:30.474Z,6.50
2024-04-09T21:50:58.229Z,6.50
2024-04-09T21:53:26.458Z,6.50
2024-04-09T21:55:54.319Z,6.50
2024-04-09T21:58:22.062Z,6.60
2024-04-09T22:00:54.724Z,6.50
2024-04-09T22:03:23.153Z,6.50
2024-04-09T22:05:50.926Z,6.40
2024-04-09T22:08:18.607Z,6.40
2024-04-09T22:10:47.611Z,6.30
2024-04-09T22:13:15.376Z,6.30
2024-04-09T22:15:43.088Z,6.30
2024-04-09T22:18:11.386Z,6.20
2024-04-09T22:20:40.606Z,6.20
2024-04-09T22:23:09.589Z,6.20
2024-04-09T22:25:37.251Z,6.10
2024-04-09T22:28:05.127Z,6.10
2024-04-09T22:30:32.757Z,6.10
2024-04-09T22:33:00.546Z,6.00
2024-04-09T22:35:28.401Z,6.10
2024-04-09T22:37:56.759Z,6.00
2024-04-09T22:40:24.353Z,6.00
2024-04-09T22:42:52.017Z,6.10
2024-04-09T22:45:19.630Z,6.00
2024-04-09T22:47:47.520Z,6.00
2024-04-09T22:50:15.547Z,6.00
2024-04-09T22:52:43.325Z,6.00
2024-04-09T22:55:10.875Z,6.00
2024-04-09T22:57:38.590Z,5.90
2024-04-09T23:00:08.182Z,5.90
2024-04-09T23:02:36.142Z,5.90
2024-04-09T23:05:04.764Z,5.90
2024-04-09T23:07:32.492Z,6.00
2024-04-09T23:10:00.099Z,5.90
2024-04-09T23:12:28.834Z,5.90
2024-04-09T23:14:58.528Z,5.90
2024-04-09T23:17:26.880Z,5.90
2024-04-09T23:19:55.023Z,5.90
2024-04-09T23:22:22.830Z,5.80
2024-04-09T23:24:50.533Z,5.80
2024-04-09T23:27:18.814Z,5.90
2024-04-09T23:29:46.478Z,5.80
2024-04-09T23:32:14.152Z,5.90
2024-04-09T23:34:41.831Z,5.80
2024-04-09T23:37:09.541Z,5.80
2024-04-09T23:39:37.128Z,5.80
2024-04-09T23:42:06.120Z,5.80
2024-04-09T23:44:34.490Z,5.90
2024-04-09T23:47:03.247Z,5.80
2024-04-09T23:49:31.693Z,5.80
2024-04-09T23:51:59.364Z,5.80
2024-04-09T23:54:27.335Z,5.80
2024-04-09T23:56:54.952Z,5.80
2024-04-09T23:59:22.708Z,5.70
